createdAt,value
2023-08-07T00:02:20.326Z,15.20
2023-08-07T00:04:47.764Z,15.10
2023-08-07T00:07:15.156Z,15.10
2023-08-07T00:09:43.151Z,14.90
2023-08-07T00:12:10.660Z,15.00
2023-08-07T00:14:38.047Z,15.00
2023-08-07T00:17:06.860Z,15.00
2023-08-07T00:19:34.696Z,15.00
2023-08-07T00:24:29.988Z,14.90
2023-08-07T00:26:57.809Z,14.90
2023-08-07T00:29:25.402Z,14.70
2023-08-07T00:31:53.104Z,14.80
2023-08-07T00:34:20.411Z,14.70
2023-08-07T00:36:48.208Z,14.80
2023-08-07T00:39:15.475Z,14.50
2023-08-07T00:41:42.767Z,14.70
2023-08-07T00:44:10.117Z,14.90
2023-08-07T00:46:40.200Z,14.60
2023-08-07T00:49:10.373Z,14.60
2023-08-07T00:51:38.606Z,14.60
2023-08-07T00:54:08.579Z,14.50
2023-08-07T00:56:36.192Z,14.60
2023-08-07T00:59:03.837Z,14.70
2023-08-07T01:01:31.834Z,14.40
2023-08-07T01:03:59.096Z,14.40
2023-08-07T01:06:27.728Z,14.20
2023-08-07T01:08:55.395Z,14.20
2023-08-07T01:11:43.342Z,14.30
2023-08-07T01:14:23.258Z,14.20
2023-08-07T01:17:03.142Z,14.20
2023-08-07T01:19:31.702Z,14.20
2023-08-07T01:22:12.146Z,14.10
2023-08-07T01:24:42.494Z,14.40
2023-08-07T01:27:29.388Z,14.10
2023-08-07T01:30:06.038Z,14.10
2023-08-07T01:32:54.332Z,14.10
2023-08-07T01:35:27.056Z,14.10
2023-08-07T01:37:57.046Z,14.00
2023-08-07T01:40:24.868Z,13.90
2023-08-07T01:42:54.904Z,14.00
2023-08-07T01:45:30.018Z,13.70
2023-08-07T01:50:25.757Z,13.90
2023-08-07T01:52:54.011Z,13.90
2023-08-07T01:55:23.650Z,13.80
2023-08-07T01:57:54.195Z,13.70
2023-08-07T02:00:22.029Z,13.60
2023-08-07T02:02:49.615Z,13.80
2023-08-07T02:05:17.316Z,13.50
2023-08-07T02:07:46.024Z,13.60
2023-08-07T02:10:13.423Z,13.50
2023-08-07T02:12:40.970Z,13.60
2023-08-07T02:15:08.814Z,13.40
2023-08-07T02:17:38.748Z,13.50
2023-08-07T02:20:07.121Z,13.50
2023-08-07T02:22:35.536Z,13.50
2023-08-07T02:25:02.897Z,13.40
2023-08-07T02:27:30.451Z,13.20
2023-08-07T02:29:58.006Z,13.20
2023-08-07T02:32:25.336Z,13.40
2023-08-07T02:34:55.313Z,13.20
2023-08-07T02:37:25.248Z,13.30
2023-08-07T02:39:54.495Z,13.40
2023-08-07T02:42:21.988Z,13.30
2023-08-07T02:44:49.325Z,13.30
2023-08-07T02:47:16.639Z,12.90
2023-08-07T02:49:43.966Z,13.20
2023-08-07T02:52:11.372Z,13.20
2023-08-07T02:54:38.720Z,13.00
2023-08-07T02:57:06.165Z,13.10
2023-08-07T02:59:33.509Z,13.10
2023-08-07T03:02:00.940Z,12.80
2023-08-07T03:04:28.277Z,13.00
2023-08-07T03:06:56.005Z,12.90
2023-08-07T03:09:23.649Z,12.90
2023-08-07T03:11:51.105Z,12.90
2023-08-07T03:14:18.445Z,12.80
2023-08-07T03:16:47.184Z,12.70
2023-08-07T03:19:15.149Z,12.80
2023-08-07T03:21:42.559Z,12.70
2023-08-07T03:24:12.678Z,12.90
2023-08-07T03:26:40.568Z,12.70
2023-08-07T03:29:08.016Z,12.80
2023-08-07T03:31:35.883Z,12.70
2023-08-07T03:34:03.972Z,12.60
2023-08-07T03:36:31.383Z,12.70
2023-08-07T03:38:58.708Z,12.70
2023-08-07T03:41:26.431Z,12.50
2023-08-07T03:43:53.798Z,12.80
2023-08-07T03:48:48.816Z,12.60
2023-08-07T03:51:19.047Z,12.70
2023-08-07T03:53:50.564Z,12.60
2023-08-07T03:56:18.081Z,12.60
2023-08-07T03:58:45.675Z,12.70
2023-08-07T04:01:14.234Z,12.50
2023-08-07T04:03:42.346Z,12.70
2023-08-07T04:06:11.780Z,12.70
2023-08-07T04:08:39.135Z,12.60
2023-08-07T04:11:06.671Z,12.30
2023-08-07T04:13:36.047Z,12.40
2023-08-07T04:16:05.649Z,12.40
2023-08-07T04:18:34.505Z,12.70
2023-08-07T04:21:03.678Z,13.20
2023-08-07T04:23:32.868Z,12.20
2023-08-07T04:26:00.724Z,12.50
2023-08-07T04:28:30.090Z,12.50
2023-08-07T04:30:57.588Z,12.40
2023-08-07T04:33:24.943Z,12.60
2023-08-07T04:35:52.221Z,12.10
2023-08-07T04:38:20.385Z,12.00
2023-08-07T04:40:48.690Z,12.30
2023-08-07T04:43:17.793Z,12.30
2023-08-07T04:45:46.571Z,12.30
2023-08-07T04:48:15.502Z,12.20
2023-08-07T04:50:43.062Z,12.20
2023-08-07T04:53:10.589Z,12.30
2023-08-07T04:55:38.092Z,12.30
2023-08-07T04:58:05.419Z,12.30
2023-08-07T05:00:33.061Z,12.10
2023-08-07T05:05:28.944Z,12.50
2023-08-07T05:07:56.798Z,13.10
2023-08-07T05:10:24.175Z,12.50
2023-08-07T05:12:56.909Z,12.50
2023-08-07T05:15:25.244Z,12.50
2023-08-07T05:17:53.342Z,12.60
2023-08-07T05:20:20.850Z,12.80
2023-08-07T05:22:48.846Z,12.60
2023-08-07T05:25:17.261Z,12.60
2023-08-07T05:27:46.172Z,12.70
2023-08-07T05:30:14.681Z,12.50
2023-08-07T05:32:42.207Z,12.60
2023-08-07T05:35:10.130Z,12.60
2023-08-07T05:37:37.852Z,12.70
2023-08-07T05:40:06.409Z,13.30
2023-08-07T05:42:34.043Z,12.70
2023-08-07T05:45:02.195Z,12.70
2023-08-07T05:47:29.629Z,12.80
2023-08-07T05:49:56.924Z,13.00
2023-08-07T05:52:24.321Z,12.80
2023-08-07T05:54:51.723Z,12.90
2023-08-07T05:57:19.642Z,12.90
2023-08-07T05:59:47.104Z,13.00
2023-08-07T06:02:14.450Z,13.10
2023-08-07T06:04:42.043Z,13.20
2023-08-07T06:07:09.563Z,13.60
2023-08-07T06:09:37.012Z,13.60
2023-08-07T06:12:04.722Z,13.70
2023-08-07T06:14:32.181Z,13.30
2023-08-07T06:17:01.557Z,13.40
2023-08-07T06:19:32.599Z,13.90
2023-08-07T06:22:01.111Z,13.30
2023-08-07T06:24:29.287Z,13.60
2023-08-07T06:26:56.682Z,13.50
2023-08-07T06:29:24.013Z,14.10
2023-08-07T06:34:19.543Z,14.00
2023-08-07T06:36:46.958Z,13.90
2023-08-07T06:39:14.291Z,14.00
2023-08-07T06:41:41.643Z,13.90
2023-08-07T06:44:12.367Z,14.00
2023-08-07T06:46:39.672Z,14.30
2023-08-07T06:49:07.004Z,14.00
2023-08-07T06:51:34.813Z,14.10
2023-08-07T06:54:02.192Z,14.20
2023-08-07T06:56:29.545Z,14.10
2023-08-07T06:58:56.918Z,14.20
2023-08-07T07:01:24.264Z,14.20
2023-08-07T07:03:53.847Z,14.10
2023-08-07T07:06:22.474Z,14.10
2023-08-07T07:08:50.064Z,14.20
2023-08-07T07:11:18.892Z,14.30
2023-08-07T07:13:47.683Z,14.30
2023-08-07T07:16:15.096Z,14.40
2023-08-07T07:18:42.555Z,14.50
2023-08-07T07:21:09.870Z,14.70
2023-08-07T07:23:37.143Z,14.50
2023-08-07T07:26:04.562Z,14.50
2023-08-07T07:31:00.350Z,14.70
2023-08-07T07:33:29.029Z,14.70
2023-08-07T07:35:56.410Z,14.70
2023-08-07T07:38:23.924Z,14.80
2023-08-07T07:40:51.385Z,14.80
2023-08-07T07:43:18.743Z,15.20
2023-08-07T07:45:46.104Z,14.80
2023-08-07T07:48:13.481Z,15.00
2023-08-07T07:50:40.835Z,14.90
2023-08-07T07:53:08.290Z,15.20
2023-08-07T07:55:35.898Z,15.20
2023-08-07T07:58:03.293Z,15.20
2023-08-07T08:00:30.647Z,15.30
2023-08-07T08:02:58.561Z,15.10
2023-08-07T08:05:26.611Z,15.40
2023-08-07T08:07:54.050Z,15.40
2023-08-07T08:10:21.475Z,15.50
2023-08-07T08:12:49.019Z,15.60
2023-08-07T08:15:16.512Z,15.60
2023-08-07T08:17:43.823Z,15.80
2023-08-07T08:20:11.552Z,15.80
2023-08-07T08:22:38.913Z,15.90
2023-08-07T08:25:07.659Z,15.90
2023-08-07T08:27:35.078Z,16.00
2023-08-07T08:30:04.912Z,16.00
2023-08-07T08:32:32.430Z,16.10
2023-08-07T08:35:00.735Z,16.20
2023-08-07T08:37:28.207Z,16.30
2023-08-07T08:39:55.572Z,16.10
2023-08-07T08:42:23.502Z,16.30
2023-08-07T08:44:55.236Z,16.50
2023-08-07T08:47:27.354Z,16.60
2023-08-07T08:50:09.052Z,16.50
2023-08-07T08:52:39.003Z,16.60
2023-08-07T08:55:07.585Z,16.70
2023-08-07T08:57:35.421Z,16.80
2023-08-07T09:00:08.071Z,17.30
2023-08-07T09:02:35.885Z,17.00
2023-08-07T09:05:03.329Z,17.30
2023-08-07T09:07:31.046Z,17.20
2023-08-07T09:09:59.126Z,17.20
2023-08-07T09:12:30.126Z,17.30
2023-08-07T09:14:59.087Z,17.00
2023-08-07T09:17:30.678Z,17.30
2023-08-07T09:19:58.488Z,17.40
2023-08-07T09:22:25.955Z,17.50
2023-08-07T09:24:53.346Z,17.50
2023-08-07T09:27:22.285Z,17.70
2023-08-07T09:29:49.927Z,17.60
2023-08-07T09:32:19.650Z,17.80
2023-08-07T09:34:48.685Z,17.80
2023-08-07T09:37:16.168Z,17.80
2023-08-07T09:39:43.569Z,17.80
2023-08-07T09:42:17.876Z,17.90
2023-08-07T09:44:49.904Z,17.90
2023-08-07T09:47:19.679Z,18.10
2023-08-07T09:49:47.716Z,18.20
2023-08-07T09:52:16.674Z,18.20
2023-08-07T09:54:44.093Z,18.10
2023-08-07T09:57:11.593Z,18.30
2023-08-07T09:59:39.006Z,18.30
2023-08-07T10:02:07.378Z,18.40
2023-08-07T10:04:36.360Z,18.50
2023-08-07T10:07:04.294Z,18.60
2023-08-07T10:09:32.605Z,18.60
2023-08-07T10:12:00.299Z,18.60
2023-08-07T10:14:28.081Z,18.50
2023-08-07T10:16:56.248Z,18.60
2023-08-07T10:19:23.971Z,18.90
2023-08-07T10:21:52.212Z,19.00
2023-08-07T10:24:20.952Z,19.10
2023-08-07T10:26:49.583Z,19.30
2023-08-07T10:29:20.320Z,19.30
2023-08-07T10:31:49.921Z,19.30
2023-08-07T10:34:17.526Z,19.40
2023-08-07T10:36:45.610Z,19.50
2023-08-07T10:39:16.117Z,19.50
2023-08-07T10:41:46.569Z,19.50
2023-08-07T10:44:22.069Z,19.40
2023-08-07T10:46:57.477Z,19.40
2023-08-07T10:49:39.393Z,19.40
2023-08-07T10:52:11.274Z,19.50
2023-08-07T10:54:46.410Z,19.40
2023-08-07T10:57:15.648Z,19.50
2023-08-07T10:59:52.716Z,19.50
2023-08-07T11:02:28.308Z,19.50
2023-08-07T11:04:56.491Z,19.50
2023-08-07T11:07:29.010Z,19.60
2023-08-07T11:09:57.773Z,19.80
2023-08-07T11:12:31.013Z,19.70
2023-08-07T11:14:58.626Z,19.60
2023-08-07T11:17:27.060Z,19.70
2023-08-07T11:19:56.156Z,19.90
2023-08-07T11:22:23.656Z,20.00
2023-08-07T11:24:52.373Z,20.20
2023-08-07T11:27:22.053Z,20.20
2023-08-07T11:29:50.445Z,20.20
2023-08-07T11:32:19.617Z,20.10
2023-08-07T11:34:51.635Z,20.10
2023-08-07T11:37:19.946Z,20.30
2023-08-07T11:39:47.302Z,20.30
2023-08-07T11:42:15.147Z,20.50
2023-08-07T11:44:43.010Z,20.60
2023-08-07T11:47:11.274Z,20.90
2023-08-07T11:49:39.199Z,21.00
2023-08-07T11:52:07.077Z,21.30
2023-08-07T11:54:34.619Z,21.70
2023-08-07T11:57:02.045Z,22.00
2023-08-07T11:59:29.444Z,22.10
2023-08-07T12:01:57.722Z,22.40
2023-08-07T12:04:25.082Z,22.40
2023-08-07T12:06:57.261Z,22.20
2023-08-07T12:09:27.047Z,22.20
2023-08-07T12:12:00.876Z,22.30
2023-08-07T12:14:31.999Z,22.60
2023-08-07T12:17:01.737Z,22.90
2023-08-07T12:19:44.282Z,22.90
2023-08-07T12:22:12.474Z,22.80
2023-08-07T12:24:41.524Z,22.70
2023-08-07T12:27:08.926Z,22.60
2023-08-07T12:29:36.632Z,22.60
2023-08-07T12:32:04.204Z,22.60
2023-08-07T12:37:02.158Z,22.90
2023-08-07T12:44:30.490Z,22.00
2023-08-07T12:46:58.124Z,22.10
2023-08-07T12:49:25.936Z,22.20
2023-08-07T12:51:54.328Z,22.20
2023-08-07T12:54:23.030Z,22.10
2023-08-07T12:56:50.396Z,22.00
2023-08-07T12:59:17.777Z,22.10
2023-08-07T13:01:45.202Z,22.10
2023-08-07T13:04:15.580Z,22.70
2023-08-07T13:06:44.499Z,23.00
2023-08-07T13:09:11.994Z,23.50
2023-08-07T13:11:39.404Z,23.80
2023-08-07T13:14:07.317Z,24.10
2023-08-07T13:16:34.700Z,24.20
2023-08-07T13:19:03.705Z,24.20
2023-08-07T13:21:32.780Z,24.20
2023-08-07T13:24:00.118Z,24.00
2023-08-07T13:26:27.824Z,24.10
2023-08-07T13:28:55.273Z,23.80
2023-08-07T13:31:22.787Z,23.70
2023-08-07T13:33:50.256Z,23.70
2023-08-07T13:36:17.672Z,23.70
2023-08-07T13:38:47.403Z,23.50
2023-08-07T13:41:15.124Z,23.60
2023-08-07T13:43:42.474Z,23.30
2023-08-07T13:46:10.908Z,23.00
2023-08-07T13:48:38.656Z,22.90
2023-08-07T13:51:08.306Z,22.70
2023-08-07T13:53:35.806Z,22.50
2023-08-07T13:56:03.393Z,22.50
2023-08-07T13:58:30.769Z,22.40
2023-08-07T14:00:58.801Z,22.60
2023-08-07T14:03:26.377Z,22.60
2023-08-07T14:05:53.969Z,22.60
2023-08-07T14:08:21.351Z,22.60
2023-08-07T14:10:48.902Z,22.80
2023-08-07T14:13:17.074Z,22.50
2023-08-07T14:15:44.757Z,22.50
2023-08-07T14:18:13.005Z,22.30
2023-08-07T14:20:52.236Z,23.70
2023-08-07T14:23:29.128Z,22.90
2023-08-07T14:25:58.296Z,23.50
2023-08-07T14:28:26.681Z,23.50
2023-08-07T14:30:54.126Z,23.50
2023-08-07T14:33:21.596Z,23.60
2023-08-07T14:35:49.045Z,23.60
2023-08-07T14:38:16.484Z,23.50
2023-08-07T14:40:44.609Z,23.40
2023-08-07T14:43:12.152Z,23.70
2023-08-07T14:45:40.419Z,23.70
2023-08-07T14:48:09.310Z,23.80
2023-08-07T14:50:36.809Z,24.00
2023-08-07T14:53:04.190Z,24.10
2023-08-07T14:55:31.963Z,24.20
2023-08-07T14:57:59.345Z,24.30
2023-08-07T15:00:26.800Z,24.30
2023-08-07T15:02:54.294Z,24.60
2023-08-07T15:05:21.807Z,24.50
2023-08-07T15:07:49.692Z,24.30
2023-08-07T15:10:17.216Z,24.30
2023-08-07T15:12:44.674Z,24.30
2023-08-07T15:15:12.042Z,24.40
2023-08-07T15:17:39.421Z,24.30
2023-08-07T15:20:07.665Z,24.40
2023-08-07T15:22:35.012Z,23.80
2023-08-07T15:25:02.784Z,24.00
2023-08-07T15:27:30.166Z,23.70
2023-08-07T15:29:57.584Z,23.70
2023-08-07T15:32:25.273Z,23.70
2023-08-07T15:34:54.154Z,23.80
2023-08-07T15:37:21.550Z,23.90
2023-08-07T15:39:48.984Z,23.90
2023-08-07T15:42:16.520Z,23.80
2023-08-07T15:44:43.883Z,24.00
2023-08-07T15:47:11.223Z,24.00
2023-08-07T15:49:38.563Z,24.00
2023-08-07T15:52:06.100Z,24.00
2023-08-07T15:54:33.383Z,24.10
2023-08-07T15:57:00.992Z,24.30
2023-08-07T15:59:29.085Z,24.50
2023-08-07T16:01:56.333Z,24.70
2023-08-07T16:04:23.785Z,24.80
2023-08-07T16:06:51.308Z,24.70
2023-08-07T16:09:18.644Z,24.60
2023-08-07T16:11:45.961Z,24.70
2023-08-07T16:14:13.348Z,24.60
2023-08-07T16:16:40.725Z,24.50
2023-08-07T16:19:08.111Z,24.30
2023-08-07T16:21:35.403Z,23.60
2023-08-07T16:24:02.800Z,23.80
2023-08-07T16:26:30.117Z,23.70
2023-08-07T16:28:57.474Z,23.60
2023-08-07T16:31:25.025Z,23.70
2023-08-07T16:33:52.373Z,23.40
2023-08-07T16:36:21.323Z,23.20
2023-08-07T16:38:50.157Z,23.20
2023-08-07T16:41:17.544Z,23.60
2023-08-07T16:43:44.972Z,24.10
2023-08-07T16:46:12.322Z,24.10
2023-08-07T16:48:39.632Z,23.80
2023-08-07T16:51:15.214Z,23.40
2023-08-07T16:53:45.948Z,22.60
2023-08-07T16:58:45.251Z,21.80
2023-08-07T17:01:13.323Z,22.40
2023-08-07T17:03:40.718Z,22.40
2023-08-07T17:06:08.028Z,22.40
2023-08-07T17:08:37.533Z,22.30
2023-08-07T17:11:05.294Z,22.30
2023-08-07T17:13:32.717Z,22.60
2023-08-07T17:16:00.104Z,22.80
2023-08-07T17:18:27.537Z,22.90
2023-08-07T17:20:54.866Z,23.20
2023-08-07T17:23:22.221Z,23.30
2023-08-07T17:25:49.784Z,23.60
2023-08-07T17:28:17.246Z,23.80
2023-08-07T17:30:44.602Z,24.30
2023-08-07T17:33:12.002Z,24.70
2023-08-07T17:35:39.389Z,24.90
2023-08-07T17:38:06.732Z,25.30
2023-08-07T17:40:34.069Z,25.00
2023-08-07T17:43:01.454Z,25.10
2023-08-07T17:45:28.904Z,25.20
2023-08-07T17:47:56.278Z,25.40
2023-08-07T17:50:23.612Z,25.40
2023-08-07T17:52:50.977Z,25.40
2023-08-07T17:55:18.466Z,25.60
2023-08-07T17:57:45.834Z,25.90
2023-08-07T18:00:15.742Z,25.40
2023-08-07T18:02:43.267Z,24.90
2023-08-07T18:05:11.872Z,24.20
2023-08-07T18:07:39.879Z,23.60
2023-08-07T18:10:09.396Z,23.10
2023-08-07T18:12:37.540Z,23.00
2023-08-07T18:15:06.002Z,23.30
2023-08-07T18:17:33.551Z,23.70
2023-08-07T18:20:00.949Z,24.10
2023-08-07T18:22:28.362Z,24.40
2023-08-07T18:24:55.612Z,24.70
2023-08-07T18:27:23.656Z,24.70
2023-08-07T18:29:51.448Z,24.40
2023-08-07T18:32:18.882Z,24.10
2023-08-07T18:34:46.263Z,23.80
2023-08-07T18:37:14.066Z,23.70
2023-08-07T18:39:41.936Z,23.80
2023-08-07T18:42:09.389Z,23.60
2023-08-07T18:44:36.726Z,23.40
2023-08-07T18:47:04.196Z,23.20
2023-08-07T18:49:32.574Z,23.10
2023-08-07T18:52:01.197Z,22.80
2023-08-07T18:54:28.635Z,22.40
2023-08-07T18:56:55.981Z,22.20
2023-08-07T18:59:23.394Z,22.00
2023-08-07T19:01:50.871Z,21.90
2023-08-07T19:04:18.463Z,21.80
2023-08-07T19:06:47.510Z,21.80
2023-08-07T19:09:14.985Z,21.70
2023-08-07T19:11:42.332Z,21.60
2023-08-07T19:14:09.671Z,21.40
2023-08-07T19:16:37.254Z,21.20
2023-08-07T19:19:04.712Z,21.10
2023-08-07T19:21:32.014Z,20.80
2023-08-07T19:23:59.398Z,20.60
2023-08-07T19:26:26.762Z,20.40
2023-08-07T19:28:54.193Z,20.30
2023-08-07T19:31:21.732Z,20.10
2023-08-07T19:33:49.162Z,19.90
2023-08-07T19:36:16.525Z,19.70
2023-08-07T19:38:43.929Z,19.60
2023-08-07T19:41:12.089Z,19.50
2023-08-07T19:43:39.497Z,19.30
2023-08-07T19:46:06.939Z,19.20
2023-08-07T19:48:36.209Z,19.10
2023-08-07T19:51:04.842Z,19.00
2023-08-07T19:53:33.286Z,18.90
2023-08-07T19:56:00.619Z,18.80
2023-08-07T19:58:27.913Z,18.70
2023-08-07T20:00:55.288Z,18.60
2023-08-07T20:03:22.665Z,18.60
2023-08-07T20:05:50.361Z,18.50
2023-08-07T20:08:17.817Z,18.50
2023-08-07T20:10:45.162Z,18.40
2023-08-07T20:13:12.574Z,18.40
2023-08-07T20:15:40.320Z,18.30
2023-08-07T20:18:07.769Z,18.20
2023-08-07T20:20:36.087Z,18.20
2023-08-07T20:23:03.464Z,18.20
2023-08-07T20:25:30.888Z,18.10
2023-08-07T20:27:58.355Z,18.00
2023-08-07T20:30:26.648Z,18.00
2023-08-07T20:32:54.406Z,18.00
2023-08-07T20:35:21.848Z,17.90
2023-08-07T20:37:49.265Z,17.90
2023-08-07T20:40:16.748Z,17.80
2023-08-07T20:42:44.254Z,17.80
2023-08-07T20:45:11.799Z,17.70
2023-08-07T20:47:39.127Z,17.70
2023-08-07T20:50:06.936Z,17.60
2023-08-07T20:52:34.383Z,17.60
2023-08-07T20:55:01.973Z,17.60
2023-08-07T20:57:29.620Z,17.50
2023-08-07T20:59:56.938Z,17.40
2023-08-07T21:02:24.573Z,17.40
2023-08-07T21:04:51.965Z,17.40
2023-08-07T21:07:20.677Z,17.40
2023-08-07T21:09:48.218Z,17.30
2023-08-07T21:12:15.717Z,17.30
2023-08-07T21:14:43.248Z,17.30
2023-08-07T21:17:10.581Z,17.20
2023-08-07T21:19:38.763Z,17.20
2023-08-07T21:22:06.556Z,17.20
2023-08-07T21:24:33.999Z,17.10
2023-08-07T21:27:01.469Z,17.10
2023-08-07T21:29:28.821Z,17.10
2023-08-07T21:31:56.467Z,17.10
2023-08-07T21:34:24.014Z,17.00
2023-08-07T21:36:51.583Z,17.00
2023-08-07T21:39:18.879Z,17.00
2023-08-07T21:41:46.337Z,16.90
2023-08-07T21:44:13.880Z,16.90
2023-08-07T21:46:41.475Z,16.90
2023-08-07T21:49:09.099Z,16.90
2023-08-07T21:51:36.448Z,16.80
2023-08-07T21:54:03.922Z,16.80
2023-08-07T21:56:31.643Z,16.70
2023-08-07T21:59:01.629Z,16.70
2023-08-07T22:01:29.029Z,16.70
2023-08-07T22:03:56.446Z,16.70
2023-08-07T22:06:23.874Z,16.60
2023-08-07T22:08:51.257Z,16.60
2023-08-07T22:11:18.604Z,16.60
2023-08-07T22:13:46.260Z,16.60
2023-08-07T22:16:13.729Z,16.50
2023-08-07T22:18:42.061Z,16.50
2023-08-07T22:21:09.430Z,16.50
2023-08-07T22:23:36.873Z,16.40
2023-08-07T22:26:04.166Z,16.40
2023-08-07T22:28:31.534Z,16.30
2023-08-07T22:30:58.899Z,16.30
2023-08-07T22:33:26.397Z,16.20
2023-08-07T22:35:53.916Z,16.20
2023-08-07T22:38:21.293Z,16.20
2023-08-07T22:40:48.751Z,16.10
2023-08-07T22:43:16.387Z,16.10
2023-08-07T22:45:44.043Z,16.00
2023-08-07T22:48:11.866Z,16.00
2023-08-07T22:50:39.299Z,16.00
2023-08-07T22:53:06.693Z,15.90
2023-08-07T22:55:34.349Z,15.90
2023-08-07T22:58:03.238Z,15.80
2023-08-07T23:00:32.491Z,15.80
2023-08-07T23:03:00.385Z,15.70
2023-08-07T23:05:27.847Z,15.70
2023-08-07T23:07:55.382Z,15.60
2023-08-07T23:10:24.202Z,15.60
2023-08-07T23:12:54.177Z,15.60
2023-08-07T23:15:21.768Z,15.50
2023-08-07T23:17:49.138Z,15.50
2023-08-07T23:20:16.579Z,15.40
2023-08-07T23:22:43.948Z,15.40
2023-08-07T23:25:11.378Z,15.40
2023-08-07T23:27:38.781Z,15.30
2023-08-07T23:30:07.223Z,15.30
2023-08-07T23:32:34.610Z,15.30
2023-08-07T23:35:05.053Z,15.20
2023-08-07T23:37:32.460Z,15.20
2023-08-07T23:39:59.935Z,15.10
2023-08-07T23:42:29.492Z,15.10
2023-08-07T23:44:56.932Z,15.10
2023-08-07T23:47:24.357Z,15.10
2023-08-07T23:49:51.786Z,15.00
2023-08-07T23:52:19.250Z,15.00
2023-08-07T23:54:46.609Z,15.00
2023-08-07T23:57:13.953Z,14.90
2023-08-07T23:59:41.267Z,14.90
